aviador You're here:

KMYJ Decoded Metar

in
Report Time2018-01-16 19:35:00
UTC Time2018-01-16 19:31:15
Flight Rules vfr VFR
Wind280° at 12 kt
W.Decomp.*RWY 24: 9.2 kt HW 7.7 kt RCW
RWY 36: 2.1 kt HW 11.8 kt LCW
W.Rank280° ranks 16
Current wind is above 280° avg. (8.3)
Visibility9999 m
Phenomena:Light Snow
Clouds:Broken 060 Hf
Expected CloudBase > 2,000 ft AGL from Temp-Dew spread
Ceiling6,000 ft
Temp-15°C
Dew Point-20°C (66% RH)
AAT-22.9°C
QNH1039 hPa
Raw Report
KMYJ 161935Z AUTO 28012KT 7SM -SN BKN060 M15/M20 A3067 RMK AO2=

Extra information for KMYJ:More info

Social comments